createdAt,value
2023-05-15T00:00:02.631Z,2.03
2023-05-15T00:02:40.383Z,1.53
2023-05-15T00:05:09.334Z,2.40
2023-05-15T00:07:37.432Z,1.83
2023-05-15T00:10:07.399Z,2.03
2023-05-15T00:12:35.855Z,2.73
2023-05-15T00:15:03.530Z,1.63
2023-05-15T00:17:31.329Z,1.57
2023-05-15T00:19:59.787Z,1.77
2023-05-15T00:22:27.439Z,1.73
2023-05-15T00:24:55.039Z,2.53
2023-05-15T00:27:24.252Z,2.93
2023-05-15T00:29:51.889Z,2.93
2023-05-15T00:32:19.514Z,2.23
2023-05-15T00:34:47.296Z,1.77
2023-05-15T00:37:15.011Z,2.00
2023-05-15T00:39:42.781Z,2.03
2023-05-15T00:42:11.214Z,2.70
2023-05-15T00:44:42.231Z,2.93
2023-05-15T00:47:11.853Z,3.53
2023-05-15T00:49:40.092Z,2.33
2023-05-15T00:52:08.627Z,3.17
2023-05-15T00:54:36.545Z,2.10
2023-05-15T00:57:06.666Z,3.70
2023-05-15T00:59:34.762Z,3.57
2023-05-15T01:02:04.079Z,3.00
2023-05-15T01:04:32.472Z,3.13
2023-05-15T01:07:00.279Z,2.53
2023-05-15T01:09:31.205Z,3.63
2023-05-15T01:12:02.115Z,3.50
2023-05-15T01:14:29.724Z,3.27
2023-05-15T01:16:57.391Z,2.70
2023-05-15T01:19:26.578Z,3.50
2023-05-15T01:22:34.973Z,3.27
2023-05-15T01:25:36.425Z,3.17
2023-05-15T01:28:09.976Z,3.13
2023-05-15T01:30:40.926Z,3.00
2023-05-15T01:33:22.080Z,3.33
2023-05-15T01:35:56.921Z,3.27
2023-05-15T01:38:31.697Z,3.33
2023-05-15T01:41:04.298Z,3.97
2023-05-15T01:43:36.164Z,3.93
2023-05-15T01:46:06.239Z,3.70
2023-05-15T01:48:36.367Z,3.17
2023-05-15T01:51:07.513Z,4.27
2023-05-15T01:53:37.052Z,3.47
2023-05-15T01:56:08.191Z,4.07
2023-05-15T01:58:38.681Z,3.17
2023-05-15T02:01:09.773Z,3.80
2023-05-15T02:03:38.442Z,4.00
2023-05-15T02:06:08.413Z,3.67
2023-05-15T02:08:37.471Z,4.23
2023-05-15T02:11:06.116Z,4.23
2023-05-15T02:13:36.379Z,5.90
2023-05-15T02:16:05.733Z,4.53
2023-05-15T02:18:33.717Z,8.03
2023-05-15T02:21:02.847Z,6.50
2023-05-15T02:23:30.522Z,7.40
2023-05-15T02:26:13.737Z,6.97
2023-05-15T02:28:49.489Z,7.47
2023-05-15T02:31:27.851Z,7.97
2023-05-15T02:34:04.438Z,8.93
2023-05-15T02:36:36.095Z,8.17
2023-05-15T02:39:03.811Z,8.20
2023-05-15T02:41:34.285Z,8.43
2023-05-15T02:44:03.651Z,5.87
2023-05-15T02:46:33.220Z,8.47
2023-05-15T02:49:01.763Z,6.93
2023-05-15T02:51:30.128Z,6.90
2023-05-15T02:54:01.150Z,7.47
2023-05-15T02:56:29.025Z,7.40
2023-05-15T02:58:57.002Z,8.73
2023-05-15T03:01:24.949Z,7.87
2023-05-15T03:03:54.052Z,5.83
2023-05-15T03:06:21.962Z,7.43
2023-05-15T03:08:49.727Z,8.27
2023-05-15T03:11:19.274Z,5.60
2023-05-15T03:13:46.926Z,6.83
2023-05-15T03:16:14.613Z,7.43
2023-05-15T03:18:42.558Z,7.27
2023-05-15T03:21:11.587Z,7.50
2023-05-15T03:23:39.334Z,7.47
2023-05-15T03:26:06.987Z,7.03
2023-05-15T03:28:34.692Z,7.50
2023-05-15T03:31:04.781Z,8.43
2023-05-15T03:33:33.078Z,6.60
2023-05-15T03:36:00.733Z,10.13
2023-05-15T03:38:29.670Z,7.10
2023-05-15T03:40:57.291Z,7.97
2023-05-15T03:43:25.080Z,8.53
2023-05-15T03:45:52.703Z,8.37
2023-05-15T03:48:20.499Z,8.43
2023-05-15T03:50:48.195Z,7.87
2023-05-15T03:53:15.872Z,10.93
2023-05-15T03:55:45.362Z,9.10
2023-05-15T03:58:13.082Z,9.17
2023-05-15T04:00:40.830Z,7.33
2023-05-15T04:03:08.853Z,8.50
2023-05-15T04:05:36.631Z,8.47
2023-05-15T04:08:04.379Z,8.43
2023-05-15T04:10:33.807Z,8.83
2023-05-15T04:13:02.806Z,8.40
2023-05-15T04:15:30.767Z,9.63
2023-05-15T04:17:58.463Z,8.53
2023-05-15T04:20:26.551Z,9.03
2023-05-15T04:22:54.864Z,8.43
2023-05-15T04:25:22.861Z,8.33
2023-05-15T04:27:50.826Z,8.67
2023-05-15T04:30:20.160Z,8.93
2023-05-15T04:32:47.809Z,9.00
2023-05-15T04:35:15.819Z,10.43
2023-05-15T04:37:45.526Z,8.77
2023-05-15T04:40:15.120Z,8.50
2023-05-15T04:42:42.976Z,8.27
2023-05-15T04:45:10.944Z,7.87
2023-05-15T04:47:40.053Z,9.57
2023-05-15T04:50:09.160Z,9.17
2023-05-15T04:52:36.804Z,8.63
2023-05-15T04:55:04.939Z,9.27
2023-05-15T04:57:32.697Z,8.13
2023-05-15T05:00:00.312Z,9.27
2023-05-15T05:02:51.827Z,9.43
2023-05-15T05:05:19.591Z,9.17
2023-05-15T05:07:47.417Z,9.27
2023-05-15T05:10:15.092Z,10.27
2023-05-15T05:12:42.682Z,11.83
2023-05-15T05:15:11.340Z,8.43
2023-05-15T05:17:39.090Z,10.07
2023-05-15T05:20:12.662Z,9.67
2023-05-15T05:22:42.259Z,8.93
2023-05-15T05:25:10.259Z,9.60
2023-05-15T05:27:37.854Z,9.07
2023-05-15T05:30:06.552Z,8.47
2023-05-15T05:32:34.195Z,10.63
2023-05-15T05:35:02.173Z,7.43
2023-05-15T05:37:31.166Z,8.33
2023-05-15T05:39:58.906Z,9.77
2023-05-15T05:42:26.906Z,6.30
2023-05-15T05:44:54.666Z,8.83
2023-05-15T05:47:22.265Z,9.83
2023-05-15T05:49:49.888Z,7.63
2023-05-15T05:52:17.754Z,9.83
2023-05-15T05:54:48.119Z,7.80
2023-05-15T05:57:16.047Z,9.13
2023-05-15T05:59:43.808Z,8.67
2023-05-15T06:02:11.793Z,7.30
2023-05-15T06:04:39.436Z,9.07
2023-05-15T06:07:07.541Z,7.57
2023-05-15T06:09:35.253Z,6.63
2023-05-15T06:12:05.678Z,6.40
2023-05-15T06:14:33.313Z,6.40
2023-05-15T06:17:01.898Z,6.60
2023-05-15T06:19:29.826Z,6.80
2023-05-15T06:21:57.443Z,7.10
2023-05-15T06:24:25.051Z,6.20
2023-05-15T06:26:52.720Z,7.13
2023-05-15T06:29:22.226Z,9.83
2023-05-15T06:31:50.029Z,26.87
2023-05-15T06:34:17.652Z,50.33
2023-05-15T06:36:45.527Z,8.77
2023-05-15T06:39:13.136Z,16.10
2023-05-15T06:41:40.914Z,18.97
2023-05-15T06:44:13.128Z,7.40
2023-05-15T06:46:42.139Z,14.67
2023-05-15T06:49:09.960Z,6.40
2023-05-15T06:51:37.747Z,8.03
2023-05-15T06:54:05.492Z,6.20
2023-05-15T06:56:33.436Z,4.50
2023-05-15T06:59:01.052Z,5.73
2023-05-15T07:01:28.718Z,9.87
2023-05-15T07:03:57.842Z,5.10
2023-05-15T07:06:25.938Z,5.33
2023-05-15T07:08:53.855Z,5.33
2023-05-15T07:11:22.020Z,5.10
2023-05-15T07:13:50.670Z,5.50
2023-05-15T07:16:18.394Z,4.90
2023-05-15T07:18:46.182Z,6.03
2023-05-15T07:21:15.226Z,5.37
2023-05-15T07:23:42.999Z,5.37
2023-05-15T07:26:16.950Z,5.00
2023-05-15T07:28:47.804Z,5.27
2023-05-15T07:31:15.649Z,6.83
2023-05-15T07:33:43.263Z,5.07
2023-05-15T07:36:11.025Z,6.03
2023-05-15T07:38:40.030Z,5.73
2023-05-15T07:41:07.660Z,6.10
2023-05-15T07:43:35.358Z,5.53
2023-05-15T07:46:03.038Z,5.77
2023-05-15T07:48:30.674Z,5.50
2023-05-15T07:50:58.307Z,8.93
2023-05-15T07:53:26.404Z,11.03
2023-05-15T07:55:55.860Z,5.50
2023-05-15T07:58:23.892Z,6.80
2023-05-15T08:00:51.639Z,6.67
2023-05-15T08:03:19.387Z,7.03
2023-05-15T08:05:47.313Z,5.37
2023-05-15T08:08:15.421Z,6.17
2023-05-15T08:10:43.438Z,6.30
2023-05-15T08:13:12.400Z,4.40
2023-05-15T08:15:40.063Z,11.53
2023-05-15T08:18:10.487Z,4.20
2023-05-15T08:20:38.685Z,4.90
2023-05-15T08:23:06.619Z,3.57
2023-05-15T08:25:35.190Z,10.63
2023-05-15T08:28:03.080Z,5.53
2023-05-15T08:30:31.978Z,4.60
2023-05-15T08:32:59.611Z,4.13
2023-05-15T08:35:27.643Z,3.60
2023-05-15T08:37:55.662Z,4.87
2023-05-15T08:40:34.479Z,7.57
2023-05-15T08:43:13.823Z,6.00
2023-05-15T08:45:44.014Z,35.03
2023-05-15T08:48:14.579Z,4.83
2023-05-15T08:50:44.009Z,4.23
2023-05-15T08:53:13.373Z,4.93
2023-05-15T08:55:41.714Z,3.63
2023-05-15T08:58:10.019Z,3.73
2023-05-15T09:00:37.939Z,2.83
2023-05-15T09:03:06.954Z,3.40
2023-05-15T09:05:37.400Z,4.70
2023-05-15T09:08:09.187Z,3.30
2023-05-15T09:10:37.230Z,4.73
2023-05-15T09:13:07.420Z,2.73
2023-05-15T09:15:35.638Z,3.93
2023-05-15T09:18:03.337Z,2.77
2023-05-15T09:20:34.186Z,2.20
2023-05-15T09:23:03.709Z,4.43
2023-05-15T09:25:39.301Z,3.00
2023-05-15T09:28:07.555Z,2.30
2023-05-15T09:30:35.182Z,5.00
2023-05-15T09:33:03.875Z,2.93
2023-05-15T09:35:37.064Z,2.70
2023-05-15T09:38:09.023Z,2.33
2023-05-15T09:40:36.740Z,4.23
2023-05-15T09:43:04.736Z,2.53
2023-05-15T09:45:32.442Z,3.33
2023-05-15T09:48:02.492Z,3.60
2023-05-15T09:50:35.038Z,4.43
2023-05-15T09:53:05.092Z,2.43
2023-05-15T09:55:33.153Z,2.37
2023-05-15T09:58:09.055Z,2.17
2023-05-15T10:00:47.996Z,2.80
2023-05-15T10:03:19.067Z,2.47
2023-05-15T10:05:47.057Z,3.37
2023-05-15T10:08:16.229Z,2.93
2023-05-15T10:10:44.464Z,3.30
2023-05-15T10:13:12.649Z,1.93
2023-05-15T10:15:40.985Z,3.17
2023-05-15T10:18:09.255Z,2.60
2023-05-15T10:20:38.338Z,3.73
2023-05-15T10:23:06.843Z,2.33
2023-05-15T10:25:42.367Z,2.37
2023-05-15T10:28:11.305Z,2.70
2023-05-15T10:30:39.506Z,3.43
2023-05-15T10:33:08.964Z,2.90
2023-05-15T10:35:37.284Z,3.23
2023-05-15T10:38:06.479Z,2.93
2023-05-15T10:40:37.781Z,3.13
2023-05-15T10:43:06.588Z,8.83
2023-05-15T10:45:36.534Z,2.90
2023-05-15T10:48:07.592Z,1.40
2023-05-15T10:50:38.009Z,1.03
2023-05-15T10:53:05.724Z,1.00
2023-05-15T10:55:33.521Z,2.53
2023-05-15T10:58:02.567Z,3.43
2023-05-15T11:00:32.118Z,1.67
2023-05-15T11:03:00.992Z,2.10
2023-05-15T11:05:30.698Z,1.73
2023-05-15T11:08:29.868Z,1.40
2023-05-15T11:10:58.902Z,1.50
2023-05-15T11:13:27.919Z,1.60
2023-05-15T11:15:57.190Z,2.83
2023-05-15T11:18:24.808Z,2.20
2023-05-15T11:21:08.942Z,2.47
2023-05-15T11:23:41.803Z,1.93
2023-05-15T11:26:09.784Z,1.60
2023-05-15T11:28:47.316Z,2.00
2023-05-15T11:31:15.916Z,2.23
2023-05-15T11:33:43.579Z,2.07
2023-05-15T11:36:14.038Z,2.13
2023-05-15T11:38:41.654Z,1.87
2023-05-15T11:41:20.009Z,2.20
2023-05-15T11:43:49.054Z,3.27
2023-05-15T11:46:17.577Z,2.57
2023-05-15T11:48:47.580Z,2.80
2023-05-15T11:51:21.507Z,2.30
2023-05-15T11:53:50.911Z,3.57
2023-05-15T11:56:19.544Z,4.83
2023-05-15T11:58:50.767Z,2.17
2023-05-15T12:01:18.566Z,2.93
2023-05-15T12:03:48.657Z,3.37
2023-05-15T12:06:17.069Z,3.27
2023-05-15T12:08:45.156Z,3.10
2023-05-15T12:11:13.321Z,2.07
2023-05-15T12:13:40.923Z,2.87
2023-05-15T12:16:09.915Z,2.40
2023-05-15T12:18:38.088Z,2.90
2023-05-15T12:21:06.200Z,3.13
2023-05-15T12:23:33.959Z,2.10
2023-05-15T12:26:03.642Z,1.77
2023-05-15T12:28:34.444Z,1.80
2023-05-15T12:31:02.179Z,1.83
2023-05-15T12:33:31.450Z,0.57
2023-05-15T12:36:01.638Z,0.73
2023-05-15T12:38:30.673Z,2.27
2023-05-15T12:40:58.511Z,1.07
2023-05-15T12:43:27.489Z,0.70
2023-05-15T12:45:55.985Z,1.60
2023-05-15T12:48:24.062Z,1.10
2023-05-15T12:50:53.163Z,0.70
2023-05-15T12:53:23.078Z,1.63
2023-05-15T12:55:51.980Z,1.07
2023-05-15T12:58:19.933Z,1.10
2023-05-15T13:00:48.637Z,1.20
2023-05-15T13:03:16.749Z,1.97
2023-05-15T13:05:45.987Z,2.17
2023-05-15T13:08:18.490Z,1.67
2023-05-15T13:10:47.928Z,0.80
2023-05-15T13:13:17.484Z,1.40
2023-05-15T13:15:46.245Z,0.97
2023-05-15T13:18:15.293Z,1.10
2023-05-15T13:20:44.739Z,3.40
2023-05-15T13:23:14.960Z,0.70
2023-05-15T13:25:44.901Z,2.87
2023-05-15T13:28:13.249Z,0.50
2023-05-15T13:30:42.405Z,0.63
2023-05-15T13:33:10.500Z,1.10
2023-05-15T13:35:38.996Z,2.80
2023-05-15T13:38:08.729Z,0.87
2023-05-15T13:40:38.088Z,0.90
2023-05-15T13:43:07.367Z,1.07
2023-05-15T13:45:35.396Z,1.07
2023-05-15T13:48:04.160Z,1.60
2023-05-15T13:50:31.811Z,1.73
2023-05-15T13:52:59.414Z,5.40
2023-05-15T13:55:27.462Z,3.60
2023-05-15T13:57:55.362Z,1.30
2023-05-15T14:00:24.449Z,0.70
2023-05-15T14:02:52.175Z,1.30
2023-05-15T14:05:19.923Z,1.17
2023-05-15T14:07:47.758Z,1.40
2023-05-15T14:10:15.351Z,0.47
2023-05-15T14:12:43.473Z,1.73
2023-05-15T14:15:12.245Z,1.13
2023-05-15T14:17:41.366Z,1.80
2023-05-15T14:20:11.634Z,2.73
2023-05-15T14:22:40.061Z,1.30
2023-05-15T14:25:09.693Z,1.33
2023-05-15T14:27:37.314Z,1.33
2023-05-15T14:30:06.061Z,1.37
2023-05-15T14:32:33.688Z,1.37
2023-05-15T14:35:02.785Z,1.63
2023-05-15T14:37:30.357Z,1.97
2023-05-15T14:39:58.237Z,1.03
2023-05-15T14:42:27.075Z,3.13
2023-05-15T14:44:54.829Z,1.90
2023-05-15T14:47:22.412Z,1.37
2023-05-15T14:49:50.219Z,1.20
2023-05-15T14:52:19.168Z,2.53
2023-05-15T14:54:56.990Z,1.73
2023-05-15T14:57:34.498Z,1.00
2023-05-15T15:00:02.127Z,3.73
2023-05-15T15:02:29.817Z,2.20
2023-05-15T15:04:57.878Z,2.20
2023-05-15T15:07:29.287Z,1.70
2023-05-15T15:09:57.199Z,2.37
2023-05-15T15:12:25.382Z,1.10
2023-05-15T15:14:52.983Z,1.43
2023-05-15T15:17:20.936Z,2.10
2023-05-15T15:19:48.528Z,4.27
2023-05-15T15:22:16.269Z,1.67
2023-05-15T15:24:45.247Z,2.20
2023-05-15T15:27:13.153Z,1.80
2023-05-15T15:29:40.731Z,1.93
2023-05-15T15:32:08.675Z,1.27
2023-05-15T15:34:36.332Z,1.43
2023-05-15T15:37:04.267Z,2.30
2023-05-15T15:39:33.829Z,1.87
2023-05-15T15:42:05.094Z,1.83
2023-05-15T15:44:34.415Z,0.97
2023-05-15T15:47:02.270Z,1.00
2023-05-15T15:49:29.859Z,1.47
2023-05-15T15:51:57.710Z,1.20
2023-05-15T15:54:25.369Z,0.93
2023-05-15T15:56:53.419Z,1.60
2023-05-15T15:59:22.651Z,1.20
2023-05-15T16:01:50.298Z,1.00
2023-05-15T16:04:18.170Z,2.40
2023-05-15T16:06:45.809Z,1.60
2023-05-15T16:09:14.488Z,1.00
2023-05-15T16:11:42.071Z,1.93
2023-05-15T16:14:09.830Z,1.43
2023-05-15T16:16:38.806Z,1.47
2023-05-15T16:19:06.641Z,0.77
2023-05-15T16:21:36.353Z,1.20
2023-05-15T16:24:04.476Z,1.63
2023-05-15T16:26:32.749Z,1.40
2023-05-15T16:29:00.414Z,3.27
2023-05-15T16:31:28.257Z,0.70
2023-05-15T16:34:00.305Z,2.20
2023-05-15T16:36:29.163Z,2.27
2023-05-15T16:38:57.171Z,1.23
2023-05-15T16:41:26.275Z,1.03
2023-05-15T16:43:53.936Z,0.80
2023-05-15T16:46:21.925Z,1.00
2023-05-15T16:48:49.562Z,0.93
2023-05-15T16:51:18.787Z,3.10
2023-05-15T16:53:47.080Z,0.90
2023-05-15T16:56:14.845Z,5.50
2023-05-15T16:58:43.208Z,1.23
2023-05-15T17:01:10.909Z,3.60
2023-05-15T17:03:38.565Z,1.43
2023-05-15T17:06:06.828Z,0.87
2023-05-15T17:08:35.759Z,0.57
2023-05-15T17:11:03.413Z,1.20
2023-05-15T17:13:31.028Z,0.50
2023-05-15T17:15:58.679Z,0.97
2023-05-15T17:18:26.238Z,0.40
2023-05-15T17:20:53.977Z,0.53
2023-05-15T17:23:23.028Z,0.50
2023-05-15T17:25:52.464Z,0.83
2023-05-15T17:28:20.089Z,0.80
2023-05-15T17:30:47.663Z,0.50
2023-05-15T17:33:15.329Z,2.07
2023-05-15T17:35:42.963Z,0.83
2023-05-15T17:38:10.716Z,1.80
2023-05-15T17:40:38.282Z,0.80
2023-05-15T17:43:09.875Z,0.60
2023-05-15T17:45:37.556Z,0.70
2023-05-15T17:48:05.978Z,1.50
2023-05-15T17:50:35.000Z,0.70
2023-05-15T17:53:03.826Z,0.60
2023-05-15T17:55:31.419Z,0.50
2023-05-15T17:57:59.253Z,0.50
2023-05-15T18:00:28.571Z,0.67
2023-05-15T18:02:56.595Z,1.03
2023-05-15T18:05:24.843Z,0.70
2023-05-15T18:07:52.809Z,1.70
2023-05-15T18:10:20.597Z,2.97
2023-05-15T18:12:48.352Z,0.80
2023-05-15T18:15:16.327Z,0.80
2023-05-15T18:17:45.934Z,2.93
2023-05-15T18:20:14.198Z,3.83
2023-05-15T18:22:43.277Z,7.33
2023-05-15T18:25:11.018Z,6.87
2023-05-15T18:27:38.606Z,3.73
2023-05-15T18:30:09.455Z,2.30
2023-05-15T18:32:37.276Z,1.97
2023-05-15T18:35:07.224Z,1.27
2023-05-15T18:37:34.997Z,1.40
2023-05-15T18:40:02.892Z,1.37
2023-05-15T18:42:31.255Z,1.50
2023-05-15T18:44:58.869Z,1.30
2023-05-15T18:47:26.686Z,1.87
2023-05-15T18:49:54.494Z,1.30
2023-05-15T18:52:23.545Z,1.10
2023-05-15T18:54:52.454Z,0.87
2023-05-15T18:57:20.048Z,1.07
2023-05-15T18:59:48.644Z,1.07
2023-05-15T19:02:16.278Z,0.60
2023-05-15T19:04:43.861Z,2.33
2023-05-15T19:07:11.692Z,1.10
2023-05-15T19:09:40.615Z,3.23
2023-05-15T19:12:08.499Z,1.53
2023-05-15T19:14:36.097Z,1.23
2023-05-15T19:17:04.196Z,1.43
2023-05-15T19:19:31.904Z,1.60
2023-05-15T19:21:59.713Z,2.30
2023-05-15T19:24:27.332Z,1.43
2023-05-15T19:26:56.247Z,4.33
2023-05-15T19:29:23.837Z,1.73
2023-05-15T19:31:51.982Z,2.17
2023-05-15T19:34:19.568Z,1.73
2023-05-15T19:36:47.363Z,1.37
2023-05-15T19:39:14.967Z,1.90
2023-05-15T19:41:42.690Z,2.33
2023-05-15T19:44:11.731Z,1.93
2023-05-15T19:46:39.977Z,2.53
2023-05-15T19:49:07.702Z,2.10
2023-05-15T19:51:35.473Z,1.90
2023-05-15T19:54:03.103Z,1.97
2023-05-15T19:56:30.705Z,2.03
2023-05-15T19:58:59.729Z,2.00
2023-05-15T20:01:28.763Z,2.60
2023-05-15T20:03:56.650Z,1.00
2023-05-15T20:06:24.377Z,3.00
2023-05-15T20:08:52.120Z,1.60
2023-05-15T20:11:19.701Z,1.50
2023-05-15T20:13:47.839Z,1.70
2023-05-15T20:16:16.369Z,2.07
2023-05-15T20:18:47.824Z,1.40
2023-05-15T20:21:16.083Z,3.30
2023-05-15T20:23:43.836Z,2.83
2023-05-15T20:26:11.516Z,2.50
2023-05-15T20:28:39.562Z,3.00
2023-05-15T20:31:07.251Z,2.53
2023-05-15T20:33:35.121Z,1.73
2023-05-15T20:36:05.158Z,2.63
2023-05-15T20:38:33.783Z,2.03
2023-05-15T20:41:01.684Z,2.10
2023-05-15T20:43:29.299Z,2.57
2023-05-15T20:45:57.019Z,2.40
2023-05-15T20:48:24.606Z,1.80
2023-05-15T20:50:53.731Z,2.90
2023-05-15T20:53:22.987Z,2.30
2023-05-15T20:55:51.079Z,1.77
2023-05-15T20:58:18.673Z,2.13
2023-05-15T21:00:46.414Z,1.70
2023-05-15T21:03:14.873Z,3.27
2023-05-15T21:05:42.570Z,3.27
2023-05-15T21:08:10.225Z,3.13
2023-05-15T21:10:39.192Z,2.37
2023-05-15T21:13:06.779Z,2.43
2023-05-15T21:15:34.572Z,3.00
2023-05-15T21:18:02.240Z,2.63
2023-05-15T21:20:31.970Z,2.23
2023-05-15T21:23:01.197Z,3.67
2023-05-15T21:25:28.782Z,2.67
2023-05-15T21:27:57.733Z,2.63
2023-05-15T21:30:25.540Z,3.00
2023-05-15T21:32:53.561Z,3.47
2023-05-15T21:35:21.315Z,3.80
2023-05-15T21:37:49.065Z,2.23
2023-05-15T21:40:16.730Z,2.17
2023-05-15T21:42:44.380Z,2.17
2023-05-15T21:45:13.457Z,2.37
2023-05-15T21:47:41.294Z,3.10
2023-05-15T21:50:09.269Z,2.30
2023-05-15T21:52:36.989Z,3.17
2023-05-15T21:55:05.063Z,4.00
2023-05-15T21:57:32.776Z,2.83
2023-05-15T22:00:00.565Z,3.90
2023-05-15T22:02:29.679Z,3.00
2023-05-15T22:04:57.341Z,3.40
2023-05-15T22:07:24.982Z,2.10
2023-05-15T22:09:53.074Z,2.63
2023-05-15T22:12:21.055Z,2.47
2023-05-15T22:14:58.244Z,2.83
2023-05-15T22:17:28.911Z,3.70
2023-05-15T22:20:06.627Z,3.10
2023-05-15T22:22:34.641Z,4.57
2023-05-15T22:25:02.401Z,1.90
2023-05-15T22:27:30.047Z,3.03
2023-05-15T22:29:57.736Z,3.17
2023-05-15T22:32:25.802Z,3.53
2023-05-15T22:34:53.559Z,3.50
2023-05-15T22:37:22.763Z,3.60
2023-05-15T22:39:50.534Z,3.20
2023-05-15T22:42:19.078Z,4.33
2023-05-15T22:44:47.558Z,3.43
2023-05-15T22:47:15.134Z,3.43
2023-05-15T22:49:43.210Z,3.70
2023-05-15T22:52:13.011Z,3.00
2023-05-15T22:54:43.107Z,3.40
2023-05-15T22:57:10.816Z,3.10
2023-05-15T22:59:39.007Z,3.20
2023-05-15T23:02:07.008Z,3.00
2023-05-15T23:04:35.733Z,3.70
2023-05-15T23:07:03.474Z,3.43
2023-05-15T23:09:31.062Z,2.80
2023-05-15T23:12:00.565Z,3.50
2023-05-15T23:14:28.188Z,3.63
2023-05-15T23:16:55.787Z,3.20
2023-05-15T23:19:23.556Z,3.17
2023-05-15T23:21:51.910Z,3.03
2023-05-15T23:24:19.482Z,5.27
2023-05-15T23:26:48.141Z,3.13
2023-05-15T23:29:17.089Z,3.40
2023-05-15T23:31:45.101Z,4.00
2023-05-15T23:34:12.751Z,2.87
2023-05-15T23:36:40.729Z,3.70
2023-05-15T23:39:09.102Z,3.20
2023-05-15T23:41:37.110Z,3.23
2023-05-15T23:44:05.112Z,4.03
2023-05-15T23:46:35.487Z,4.80
2023-05-15T23:49:03.133Z,3.60
2023-05-15T23:51:31.163Z,3.27
2023-05-15T23:53:58.831Z,3.83
2023-05-15T23:56:26.633Z,4.57
2023-05-15T23:58:54.276Z,3.67
